KCYS/CYS METAR and TAF weather

Enter ICAO airport designator
Station Type Date Time Source
KCYS METAR 2020/02/21 13:53 UTC NOAA

KCYS 211353Z 28019KT 10SM CLR M02/M21 A3023 RMK AO2 PK WND 27028/1325 SLP279 T10171206


Station Type Date Time Source
KCYS Decoded METAR 2020/02/21 13:53 UTC NOAA

CHEYENNE AIRPORT, WY, United States (KCYS) 41-09N 104-48W 1865M
Feb 21, 2020 - 08:53 AM EST / 2020.02.21 1353 UTC
Wind: from the W (280 degrees) at 22 MPH (19 KT):0
Visibility: 10 mile(s):0
Sky conditions: clear
Temperature: 28.9 F (-1.7 C)
Windchill: 15 F (-9 C):1
Dew Point: -5.1 F (-20.6 C)
Relative Humidity: 22%
Pressure (altimeter): 30.23 in. Hg (1023 hPa)
ob: KCYS 211353Z 28019KT 10SM CLR M02/M21 A3023 RMK AO2 PK WND 27028/1325 SLP279 T10171206
cycle: 14

Station Type Date Time Source
KCYS TAF 2020/02/21 12:30 UTC NOAA

TAF KCYS 211120Z 2112/2212 28012KT P6SM SKC
FM211800 28012G22KT P6SM SKC
FM212100 28013KT P6SM SKC

Example: see airport list